sensor_id;sensor_type;location;lat;lon;timestamp;P1;durP1;ratioP1;P2;durP2;ratioP2
6388;SDS011;3227;42.654;23.360;2023-04-05T00:01:32;10.30;;;7.47;;
6388;SDS011;3227;42.654;23.360;2023-04-05T00:04:00;10.43;;;7.80;;
6388;SDS011;3227;42.654;23.360;2023-04-05T00:06:29;13.20;;;8.43;;
6388;SDS011;3227;42.654;23.360;2023-04-05T00:08:56;10.73;;;7.80;;
6388;SDS011;3227;42.654;23.360;2023-04-05T00:11:24;11.73;;;8.33;;
6388;SDS011;3227;42.654;23.360;2023-04-05T00:13:51;13.43;;;8.80;;
6388;SDS011;3227;42.654;23.360;2023-04-05T00:16:18;11.83;;;8.13;;
6388;SDS011;3227;42.654;23.360;2023-04-05T00:18:45;11.30;;;8.20;;
6388;SDS011;3227;42.654;23.360;2023-04-05T00:21:15;10.43;;;7.37;;
6388;SDS011;3227;42.654;23.360;2023-04-05T00:23:47;11.57;;;8.07;;
6388;SDS011;3227;42.654;23.360;2023-04-05T00:26:15;13.43;;;9.23;;
6388;SDS011;3227;42.654;23.360;2023-04-05T00:28:42;11.90;;;8.23;;
6388;SDS011;3227;42.654;23.360;2023-04-05T00:31:09;12.43;;;7.87;;
6388;SDS011;3227;42.654;23.360;2023-04-05T00:33:36;10.87;;;7.70;;
6388;SDS011;3227;42.654;23.360;2023-04-05T00:36:09;12.23;;;8.50;;
6388;SDS011;3227;42.654;23.360;2023-04-05T00:38:36;10.97;;;7.93;;
6388;SDS011;3227;42.654;23.360;2023-04-05T00:41:04;11.80;;;7.67;;
6388;SDS011;3227;42.654;23.360;2023-04-05T00:43:31;9.37;;;6.87;;
6388;SDS011;3227;42.654;23.360;2023-04-05T00:45:59;10.93;;;7.60;;
6388;SDS011;3227;42.654;23.360;2023-04-05T00:48:27;10.83;;;7.10;;
6388;SDS011;3227;42.654;23.360;2023-04-05T00:50:54;10.43;;;7.17;;
6388;SDS011;3227;42.654;23.360;2023-04-05T00:53:23;9.30;;;7.00;;
6388;SDS011;3227;42.654;23.360;2023-04-05T00:55:51;9.43;;;6.53;;
6388;SDS011;3227;42.654;23.360;2023-04-05T00:58:20;9.97;;;6.97;;
6388;SDS011;3227;42.654;23.360;2023-04-05T01:00:51;8.80;;;6.00;;
6388;SDS011;3227;42.654;23.360;2023-04-05T01:03:25;8.67;;;6.17;;
6388;SDS011;3227;42.654;23.360;2023-04-05T01:05:59;9.23;;;6.40;;
6388;SDS011;3227;42.654;23.360;2023-04-05T01:08:36;9.53;;;5.73;;
6388;SDS011;3227;42.654;23.360;2023-04-05T01:11:10;7.97;;;5.23;;
6388;SDS011;3227;42.654;23.360;2023-04-05T01:13:42;8.73;;;5.80;;
6388;SDS011;3227;42.654;23.360;2023-04-05T01:16:10;6.97;;;4.93;;
6388;SDS011;3227;42.654;23.360;2023-04-05T01:18:37;8.73;;;5.40;;
6388;SDS011;3227;42.654;23.360;2023-04-05T01:21:10;7.17;;;4.77;;
6388;SDS011;3227;42.654;23.360;2023-04-05T01:23:56;7.37;;;4.97;;
6388;SDS011;3227;42.654;23.360;2023-04-05T01:26:52;7.77;;;5.10;;
6388;SDS011;3227;42.654;23.360;2023-04-05T01:29:31;6.83;;;4.60;;
6388;SDS011;3227;42.654;23.360;2023-04-05T01:32:10;7.10;;;4.93;;
6388;SDS011;3227;42.654;23.360;2023-04-05T01:34:45;6.90;;;4.70;;
6388;SDS011;3227;42.654;23.360;2023-04-05T01:37:17;6.93;;;4.63;;
6388;SDS011;3227;42.654;23.360;2023-04-05T01:39:45;7.40;;;4.97;;
6388;SDS011;3227;42.654;23.360;2023-04-05T01:42:15;7.23;;;4.83;;
6388;SDS011;3227;42.654;23.360;2023-04-05T01:44:49;7.03;;;5.00;;
6388;SDS011;3227;42.654;23.360;2023-04-05T01:47:16;7.40;;;4.77;;
6388;SDS011;3227;42.654;23.360;2023-04-05T01:49:44;7.47;;;5.10;;
6388;SDS011;3227;42.654;23.360;2023-04-05T01:52:11;7.87;;;5.23;;
6388;SDS011;3227;42.654;23.360;2023-04-05T01:54:38;6.87;;;4.77;;
6388;SDS011;3227;42.654;23.360;2023-04-05T01:57:04;7.77;;;5.23;;
6388;SDS011;3227;42.654;23.360;2023-04-05T01:59:31;7.77;;;5.40;;
6388;SDS011;3227;42.654;23.360;2023-04-05T02:01:59;6.90;;;4.73;;
6388;SDS011;3227;42.654;23.360;2023-04-05T02:04:26;7.93;;;5.00;;
6388;SDS011;3227;42.654;23.360;2023-04-05T02:06:53;7.27;;;4.87;;
6388;SDS011;3227;42.654;23.360;2023-04-05T02:09:20;7.47;;;5.00;;
6388;SDS011;3227;42.654;23.360;2023-04-05T02:11:47;7.47;;;5.00;;
6388;SDS011;3227;42.654;23.360;2023-04-05T02:14:13;7.17;;;4.90;;
6388;SDS011;3227;42.654;23.360;2023-04-05T02:16:40;8.70;;;5.20;;
6388;SDS011;3227;42.654;23.360;2023-04-05T02:19:09;7.53;;;5.00;;
6388;SDS011;3227;42.654;23.360;2023-04-05T02:21:37;6.63;;;4.50;;
6388;SDS011;3227;42.654;23.360;2023-04-05T02:24:05;7.20;;;5.07;;
6388;SDS011;3227;42.654;23.360;2023-04-05T02:26:32;6.90;;;4.50;;
6388;SDS011;3227;42.654;23.360;2023-04-05T02:28:59;7.00;;;4.63;;
6388;SDS011;3227;42.654;23.360;2023-04-05T02:31:25;7.37;;;4.70;;
6388;SDS011;3227;42.654;23.360;2023-04-05T02:33:52;8.80;;;4.53;;
6388;SDS011;3227;42.654;23.360;2023-04-05T02:36:20;7.10;;;4.83;;
6388;SDS011;3227;42.654;23.360;2023-04-05T02:38:48;7.07;;;4.97;;
6388;SDS011;3227;42.654;23.360;2023-04-05T02:41:15;7.80;;;5.10;;
6388;SDS011;3227;42.654;23.360;2023-04-05T02:43:41;6.43;;;4.57;;
6388;SDS011;3227;42.654;23.360;2023-04-05T02:46:08;6.90;;;4.83;;
6388;SDS011;3227;42.654;23.360;2023-04-05T02:48:35;7.73;;;4.60;;
6388;SDS011;3227;42.654;23.360;2023-04-05T02:51:02;8.30;;;4.93;;
6388;SDS011;3227;42.654;23.360;2023-04-05T02:53:30;7.13;;;4.80;;
6388;SDS011;3227;42.654;23.360;2023-04-05T02:55:57;9.60;;;5.00;;
6388;SDS011;3227;42.654;23.360;2023-04-05T02:58:25;9.57;;;4.93;;
6388;SDS011;3227;42.654;23.360;2023-04-05T03:00:52;6.80;;;4.63;;
6388;SDS011;3227;42.654;23.360;2023-04-05T03:03:20;8.13;;;4.90;;
6388;SDS011;3227;42.654;23.360;2023-04-05T03:05:48;7.80;;;4.90;;
6388;SDS011;3227;42.654;23.360;2023-04-05T03:08:22;8.33;;;5.00;;
6388;SDS011;3227;42.654;23.360;2023-04-05T03:10:51;7.67;;;5.17;;
6388;SDS011;3227;42.654;23.360;2023-04-05T03:13:17;8.07;;;5.40;;
6388;SDS011;3227;42.654;23.360;2023-04-05T03:15:44;7.00;;;5.10;;
6388;SDS011;3227;42.654;23.360;2023-04-05T03:18:11;7.77;;;5.23;;
6388;SDS011;3227;42.654;23.360;2023-04-05T03:20:38;8.00;;;5.47;;
6388;SDS011;3227;42.654;23.360;2023-04-05T03:23:05;8.13;;;5.07;;
6388;SDS011;3227;42.654;23.360;2023-04-05T03:25:33;7.07;;;4.73;;
6388;SDS011;3227;42.654;23.360;2023-04-05T03:28:02;7.10;;;4.80;;
6388;SDS011;3227;42.654;23.360;2023-04-05T03:30:30;8.50;;;4.60;;
6388;SDS011;3227;42.654;23.360;2023-04-05T03:32:57;7.33;;;5.07;;
6388;SDS011;3227;42.654;23.360;2023-04-05T03:35:25;7.97;;;5.10;;
6388;SDS011;3227;42.654;23.360;2023-04-05T03:37:52;6.70;;;4.80;;
6388;SDS011;3227;42.654;23.360;2023-04-05T03:40:19;7.23;;;5.10;;
6388;SDS011;3227;42.654;23.360;2023-04-05T03:42:46;7.37;;;5.00;;
6388;SDS011;3227;42.654;23.360;2023-04-05T03:45:14;7.17;;;5.10;;
6388;SDS011;3227;42.654;23.360;2023-04-05T03:47:41;9.00;;;5.33;;
6388;SDS011;3227;42.654;23.360;2023-04-05T03:50:08;7.83;;;5.53;;
6388;SDS011;3227;42.654;23.360;2023-04-05T03:52:35;7.43;;;5.27;;
6388;SDS011;3227;42.654;23.360;2023-04-05T03:55:02;7.40;;;5.40;;
6388;SDS011;3227;42.654;23.360;2023-04-05T03:57:29;8.10;;;5.33;;
6388;SDS011;3227;42.654;23.360;2023-04-05T03:59:56;8.27;;;5.77;;
6388;SDS011;3227;42.654;23.360;2023-04-05T04:02:24;8.70;;;5.90;;
6388;SDS011;3227;42.654;23.360;2023-04-05T04:04:51;7.07;;;5.30;;
6388;SDS011;3227;42.654;23.360;2023-04-05T04:07:18;9.07;;;6.00;;
6388;SDS011;3227;42.654;23.360;2023-04-05T04:09:44;8.80;;;6.00;;
6388;SDS011;3227;42.654;23.360;2023-04-05T04:12:11;9.07;;;5.57;;
6388;SDS011;3227;42.654;23.360;2023-04-05T04:14:38;7.73;;;5.70;;
6388;SDS011;3227;42.654;23.360;2023-04-05T04:17:05;8.50;;;5.90;;
6388;SDS011;3227;42.654;23.360;2023-04-05T04:19:33;8.47;;;5.80;;
6388;SDS011;3227;42.654;23.360;2023-04-05T04:22:00;8.17;;;5.90;;
6388;SDS011;3227;42.654;23.360;2023-04-05T04:24:27;8.40;;;5.83;;
6388;SDS011;3227;42.654;23.360;2023-04-05T04:26:56;8.07;;;5.37;;
6388;SDS011;3227;42.654;23.360;2023-04-05T04:29:23;8.17;;;5.80;;
6388;SDS011;3227;42.654;23.360;2023-04-05T04:31:55;8.07;;;5.70;;
6388;SDS011;3227;42.654;23.360;2023-04-05T04:34:22;8.17;;;5.77;;
6388;SDS011;3227;42.654;23.360;2023-04-05T04:36:51;9.23;;;5.80;;
6388;SDS011;3227;42.654;23.360;2023-04-05T04:39:25;7.73;;;5.80;;
6388;SDS011;3227;42.654;23.360;2023-04-05T04:41:55;8.40;;;5.93;;
6388;SDS011;3227;42.654;23.360;2023-04-05T04:44:22;7.97;;;5.60;;
6388;SDS011;3227;42.654;23.360;2023-04-05T04:46:55;8.67;;;6.20;;
6388;SDS011;3227;42.654;23.360;2023-04-05T04:49:22;11.70;;;5.93;;
6388;SDS011;3227;42.654;23.360;2023-04-05T04:51:49;8.20;;;6.07;;
6388;SDS011;3227;42.654;23.360;2023-04-05T04:54:17;8.23;;;5.93;;
6388;SDS011;3227;42.654;23.360;2023-04-05T04:56:46;8.13;;;5.50;;
6388;SDS011;3227;42.654;23.360;2023-04-05T04:59:13;7.93;;;5.67;;
6388;SDS011;3227;42.654;23.360;2023-04-05T05:01:40;9.40;;;6.80;;
6388;SDS011;3227;42.654;23.360;2023-04-05T05:04:09;6.40;;;4.43;;
6388;SDS011;3227;42.654;23.360;2023-04-05T05:06:36;7.27;;;4.60;;
6388;SDS011;3227;42.654;23.360;2023-04-05T05:09:05;7.37;;;4.23;;
6388;SDS011;3227;42.654;23.360;2023-04-05T05:11:32;7.63;;;4.23;;
6388;SDS011;3227;42.654;23.360;2023-04-05T05:13:58;6.90;;;4.70;;
6388;SDS011;3227;42.654;23.360;2023-04-05T05:16:25;7.17;;;4.90;;
6388;SDS011;3227;42.654;23.360;2023-04-05T05:18:52;6.20;;;4.17;;
6388;SDS011;3227;42.654;23.360;2023-04-05T05:21:19;5.70;;;3.50;;
6388;SDS011;3227;42.654;23.360;2023-04-05T05:23:46;5.53;;;4.03;;
6388;SDS011;3227;42.654;23.360;2023-04-05T05:26:14;5.60;;;3.80;;
6388;SDS011;3227;42.654;23.360;2023-04-05T05:28:41;5.80;;;3.67;;
6388;SDS011;3227;42.654;23.360;2023-04-05T05:31:09;4.73;;;3.20;;
6388;SDS011;3227;42.654;23.360;2023-04-05T05:33:38;4.93;;;2.90;;
6388;SDS011;3227;42.654;23.360;2023-04-05T05:36:05;5.60;;;3.30;;
6388;SDS011;3227;42.654;23.360;2023-04-05T05:38:32;5.57;;;3.13;;
6388;SDS011;3227;42.654;23.360;2023-04-05T05:40:59;5.17;;;3.43;;
6388;SDS011;3227;42.654;23.360;2023-04-05T05:43:27;6.50;;;3.50;;
6388;SDS011;3227;42.654;23.360;2023-04-05T05:45:54;5.80;;;3.70;;
6388;SDS011;3227;42.654;23.360;2023-04-05T05:48:21;9.87;;;5.40;;
6388;SDS011;3227;42.654;23.360;2023-04-05T05:50:48;7.53;;;4.27;;
6388;SDS011;3227;42.654;23.360;2023-04-05T05:53:15;8.37;;;4.43;;
6388;SDS011;3227;42.654;23.360;2023-04-05T05:55:41;6.93;;;4.30;;
6388;SDS011;3227;42.654;23.360;2023-04-05T05:58:08;7.10;;;4.50;;
6388;SDS011;3227;42.654;23.360;2023-04-05T06:00:36;7.00;;;4.27;;
6388;SDS011;3227;42.654;23.360;2023-04-05T06:03:04;5.90;;;3.60;;
6388;SDS011;3227;42.654;23.360;2023-04-05T06:05:31;6.47;;;4.30;;
6388;SDS011;3227;42.654;23.360;2023-04-05T06:07:57;6.57;;;4.10;;
6388;SDS011;3227;42.654;23.360;2023-04-05T06:10:24;6.30;;;3.70;;
6388;SDS011;3227;42.654;23.360;2023-04-05T06:12:51;7.00;;;4.13;;
6388;SDS011;3227;42.654;23.360;2023-04-05T06:15:18;6.07;;;3.80;;
6388;SDS011;3227;42.654;23.360;2023-04-05T06:17:46;7.53;;;4.00;;
6388;SDS011;3227;42.654;23.360;2023-04-05T06:20:13;6.30;;;4.20;;
6388;SDS011;3227;42.654;23.360;2023-04-05T06:22:40;6.90;;;3.87;;
6388;SDS011;3227;42.654;23.360;2023-04-05T06:25:07;5.80;;;3.50;;
6388;SDS011;3227;42.654;23.360;2023-04-05T06:27:35;5.17;;;3.30;;
6388;SDS011;3227;42.654;23.360;2023-04-05T06:30:02;6.10;;;3.50;;
6388;SDS011;3227;42.654;23.360;2023-04-05T06:32:30;5.13;;;3.17;;
6388;SDS011;3227;42.654;23.360;2023-04-05T06:34:58;5.50;;;3.10;;
6388;SDS011;3227;42.654;23.360;2023-04-05T06:37:25;6.43;;;3.30;;
6388;SDS011;3227;42.654;23.360;2023-04-05T06:39:52;6.03;;;3.43;;
6388;SDS011;3227;42.654;23.360;2023-04-05T06:42:19;6.00;;;3.30;;
6388;SDS011;3227;42.654;23.360;2023-04-05T06:44:46;7.30;;;3.47;;
6388;SDS011;3227;42.654;23.360;2023-04-05T06:47:13;9.40;;;3.23;;
6388;SDS011;3227;42.654;23.360;2023-04-05T06:49:40;5.50;;;3.40;;
6388;SDS011;3227;42.654;23.360;2023-04-05T06:52:08;6.77;;;3.70;;
6388;SDS011;3227;42.654;23.360;2023-04-05T06:54:36;6.27;;;3.53;;
6388;SDS011;3227;42.654;23.360;2023-04-05T06:57:03;6.27;;;3.60;;
6388;SDS011;3227;42.654;23.360;2023-04-05T06:59:30;6.77;;;2.70;;
6388;SDS011;3227;42.654;23.360;2023-04-05T07:01:57;8.20;;;2.70;;
6388;SDS011;3227;42.654;23.360;2023-04-05T07:04:24;5.73;;;2.67;;
6388;SDS011;3227;42.654;23.360;2023-04-05T07:06:53;4.93;;;2.93;;
6388;SDS011;3227;42.654;23.360;2023-04-05T07:09:22;4.27;;;2.70;;
6388;SDS011;3227;42.654;23.360;2023-04-05T07:11:49;3.97;;;2.53;;
6388;SDS011;3227;42.654;23.360;2023-04-05T07:14:16;4.70;;;2.70;;
6388;SDS011;3227;42.654;23.360;2023-04-05T07:16:43;5.03;;;2.70;;
6388;SDS011;3227;42.654;23.360;2023-04-05T07:19:10;5.28;;;2.60;;
6388;SDS011;3227;42.654;23.360;2023-04-05T07:21:37;6.27;;;2.70;;
6388;SDS011;3227;42.654;23.360;2023-04-05T07:24:04;4.60;;;2.83;;
6388;SDS011;3227;42.654;23.360;2023-04-05T07:26:32;6.10;;;2.60;;
6388;SDS011;3227;42.654;23.360;2023-04-05T07:29:01;5.30;;;2.90;;
6388;SDS011;3227;42.654;23.360;2023-04-05T07:31:28;5.63;;;3.00;;
6388;SDS011;3227;42.654;23.360;2023-04-05T07:33:55;6.45;;;3.17;;
6388;SDS011;3227;42.654;23.360;2023-04-05T07:36:22;9.83;;;4.93;;
6388;SDS011;3227;42.654;23.360;2023-04-05T07:38:51;5.77;;;3.30;;
6388;SDS011;3227;42.654;23.360;2023-04-05T07:41:19;5.00;;;2.90;;
6388;SDS011;3227;42.654;23.360;2023-04-05T07:43:49;6.30;;;3.00;;
6388;SDS011;3227;42.654;23.360;2023-04-05T07:46:15;6.63;;;3.30;;
6388;SDS011;3227;42.654;23.360;2023-04-05T07:48:42;3.67;;;2.57;;
6388;SDS011;3227;42.654;23.360;2023-04-05T07:51:11;7.17;;;3.13;;
6388;SDS011;3227;42.654;23.360;2023-04-05T07:53:38;6.17;;;2.57;;
6388;SDS011;3227;42.654;23.360;2023-04-05T07:56:06;3.97;;;2.67;;
6388;SDS011;3227;42.654;23.360;2023-04-05T07:58:34;5.63;;;3.20;;
6388;SDS011;3227;42.654;23.360;2023-04-05T08:01:06;5.07;;;2.60;;
6388;SDS011;3227;42.654;23.360;2023-04-05T08:03:34;5.50;;;3.23;;
6388;SDS011;3227;42.654;23.360;2023-04-05T08:06:09;7.43;;;3.13;;
6388;SDS011;3227;42.654;23.360;2023-04-05T08:08:37;6.57;;;3.20;;
6388;SDS011;3227;42.654;23.360;2023-04-05T08:11:04;5.30;;;3.07;;
6388;SDS011;3227;42.654;23.360;2023-04-05T08:13:32;6.30;;;3.40;;
6388;SDS011;3227;42.654;23.360;2023-04-05T08:15:59;4.90;;;3.00;;
6388;SDS011;3227;42.654;23.360;2023-04-05T08:18:27;5.70;;;3.17;;
6388;SDS011;3227;42.654;23.360;2023-04-05T08:20:54;7.55;;;3.20;;
6388;SDS011;3227;42.654;23.360;2023-04-05T08:23:22;11.80;;;3.70;;
6388;SDS011;3227;42.654;23.360;2023-04-05T08:25:49;7.03;;;3.07;;
6388;SDS011;3227;42.654;23.360;2023-04-05T08:28:16;6.70;;;3.03;;
6388;SDS011;3227;42.654;23.360;2023-04-05T08:30:43;5.60;;;3.10;;
6388;SDS011;3227;42.654;23.360;2023-04-05T08:33:10;7.20;;;3.27;;
6388;SDS011;3227;42.654;23.360;2023-04-05T08:35:39;7.05;;;3.30;;
6388;SDS011;3227;42.654;23.360;2023-04-05T08:38:07;8.00;;;3.60;;
6388;SDS011;3227;42.654;23.360;2023-04-05T08:40:38;5.70;;;2.75;;
6388;SDS011;3227;42.654;23.360;2023-04-05T08:43:09;8.03;;;3.60;;
6388;SDS011;3227;42.654;23.360;2023-04-05T08:45:42;8.00;;;4.00;;
6388;SDS011;3227;42.654;23.360;2023-04-05T08:48:11;6.80;;;3.30;;
6388;SDS011;3227;42.654;23.360;2023-04-05T08:50:40;4.57;;;2.83;;
6388;SDS011;3227;42.654;23.360;2023-04-05T08:53:06;4.30;;;2.70;;
6388;SDS011;3227;42.654;23.360;2023-04-05T08:55:35;5.80;;;2.47;;
6388;SDS011;3227;42.654;23.360;2023-04-05T08:58:01;6.60;;;2.63;;
6388;SDS011;3227;42.654;23.360;2023-04-05T09:00:36;4.57;;;2.80;;
6388;SDS011;3227;42.654;23.360;2023-04-05T09:03:03;6.23;;;2.97;;
6388;SDS011;3227;42.654;23.360;2023-04-05T09:05:31;5.83;;;3.73;;
6388;SDS011;3227;42.654;23.360;2023-04-05T09:08:08;8.47;;;3.57;;
6388;SDS011;3227;42.654;23.360;2023-04-05T09:10:35;5.47;;;3.03;;
6388;SDS011;3227;42.654;23.360;2023-04-05T09:13:02;12.20;;;3.87;;
6388;SDS011;3227;42.654;23.360;2023-04-05T09:15:29;4.87;;;3.20;;
6388;SDS011;3227;42.654;23.360;2023-04-05T09:17:57;6.33;;;2.87;;
6388;SDS011;3227;42.654;23.360;2023-04-05T09:20:23;4.57;;;3.00;;
6388;SDS011;3227;42.654;23.360;2023-04-05T09:22:51;6.90;;;3.37;;
6388;SDS011;3227;42.654;23.360;2023-04-05T09:28:03;5.45;;;3.33;;
6388;SDS011;3227;42.654;23.360;2023-04-05T09:30:30;5.93;;;3.83;;
6388;SDS011;3227;42.654;23.360;2023-04-05T09:32:57;7.90;;;3.50;;
6388;SDS011;3227;42.654;23.360;2023-04-05T09:35:25;7.82;;;3.20;;
6388;SDS011;3227;42.654;23.360;2023-04-05T09:38:07;5.83;;;3.40;;
6388;SDS011;3227;42.654;23.360;2023-04-05T09:40:43;5.75;;;3.30;;
6388;SDS011;3227;42.654;23.360;2023-04-05T09:43:11;6.78;;;3.40;;
6388;SDS011;3227;42.654;23.360;2023-04-05T09:45:39;6.00;;;3.42;;
6388;SDS011;3227;42.654;23.360;2023-04-05T09:48:07;5.50;;;3.10;;
6388;SDS011;3227;42.654;23.360;2023-04-05T09:50:34;6.88;;;3.10;;
6388;SDS011;3227;42.654;23.360;2023-04-05T09:53:05;7.90;;;3.53;;
6388;SDS011;3227;42.654;23.360;2023-04-05T09:55:37;5.40;;;3.30;;
6388;SDS011;3227;42.654;23.360;2023-04-05T09:58:05;6.00;;;3.67;;
6388;SDS011;3227;42.654;23.360;2023-04-05T10:00:37;4.93;;;3.30;;
6388;SDS011;3227;42.654;23.360;2023-04-05T10:03:04;7.10;;;3.80;;
6388;SDS011;3227;42.654;23.360;2023-04-05T10:05:31;7.00;;;3.27;;
6388;SDS011;3227;42.654;23.360;2023-04-05T10:08:03;6.18;;;3.30;;
6388;SDS011;3227;42.654;23.360;2023-04-05T10:10:31;6.10;;;3.58;;
6388;SDS011;3227;42.654;23.360;2023-04-05T10:13:04;6.90;;;3.97;;
6388;SDS011;3227;42.654;23.360;2023-04-05T10:15:31;6.50;;;3.85;;
6388;SDS011;3227;42.654;23.360;2023-04-05T10:18:01;6.20;;;3.80;;
6388;SDS011;3227;42.654;23.360;2023-04-05T10:20:31;6.43;;;4.23;;
6388;SDS011;3227;42.654;23.360;2023-04-05T10:23:05;6.87;;;4.10;;
6388;SDS011;3227;42.654;23.360;2023-04-05T10:25:47;6.10;;;3.90;;
6388;SDS011;3227;42.654;23.360;2023-04-05T10:28:39;7.13;;;4.50;;
6388;SDS011;3227;42.654;23.360;2023-04-05T10:31:09;6.80;;;4.20;;
6388;SDS011;3227;42.654;23.360;2023-04-05T10:33:42;7.23;;;4.33;;
6388;SDS011;3227;42.654;23.360;2023-04-05T10:36:11;7.23;;;4.77;;
6388;SDS011;3227;42.654;23.360;2023-04-05T10:38:50;6.27;;;4.20;;
6388;SDS011;3227;42.654;23.360;2023-04-05T10:41:29;7.93;;;4.67;;
6388;SDS011;3227;42.654;23.360;2023-04-05T10:44:02;7.30;;;5.20;;
6388;SDS011;3227;42.654;23.360;2023-04-05T10:46:30;7.18;;;4.90;;
6388;SDS011;3227;42.654;23.360;2023-04-05T10:48:58;7.60;;;5.03;;
6388;SDS011;3227;42.654;23.360;2023-04-05T10:51:32;7.85;;;5.30;;
6388;SDS011;3227;42.654;23.360;2023-04-05T10:53:59;6.93;;;4.47;;
6388;SDS011;3227;42.654;23.360;2023-04-05T10:56:26;6.60;;;4.10;;
6388;SDS011;3227;42.654;23.360;2023-04-05T10:58:53;6.13;;;4.23;;
6388;SDS011;3227;42.654;23.360;2023-04-05T11:01:22;9.63;;;4.75;;
6388;SDS011;3227;42.654;23.360;2023-04-05T11:03:50;7.18;;;4.65;;
6388;SDS011;3227;42.654;23.360;2023-04-05T11:06:20;10.03;;;5.07;;
6388;SDS011;3227;42.654;23.360;2023-04-05T11:08:51;8.93;;;4.50;;
6388;SDS011;3227;42.654;23.360;2023-04-05T11:11:20;7.70;;;5.20;;
6388;SDS011;3227;42.654;23.360;2023-04-05T11:13:50;10.80;;;4.87;;
6388;SDS011;3227;42.654;23.360;2023-04-05T11:16:18;8.47;;;4.83;;
6388;SDS011;3227;42.654;23.360;2023-04-05T11:18:46;7.83;;;5.23;;
6388;SDS011;3227;42.654;23.360;2023-04-05T11:21:22;7.60;;;5.23;;
6388;SDS011;3227;42.654;23.360;2023-04-05T11:24:00;13.63;;;5.93;;
6388;SDS011;3227;42.654;23.360;2023-04-05T11:26:32;8.23;;;5.28;;
6388;SDS011;3227;42.654;23.360;2023-04-05T11:29:18;8.00;;;4.60;;
6388;SDS011;3227;42.654;23.360;2023-04-05T11:32:05;7.90;;;5.40;;
6388;SDS011;3227;42.654;23.360;2023-04-05T11:34:40;9.02;;;5.30;;
6388;SDS011;3227;42.654;23.360;2023-04-05T11:37:07;8.10;;;5.27;;
6388;SDS011;3227;42.654;23.360;2023-04-05T11:39:34;7.53;;;4.93;;
6388;SDS011;3227;42.654;23.360;2023-04-05T11:42:03;7.05;;;5.18;;
6388;SDS011;3227;42.654;23.360;2023-04-05T11:44:38;8.70;;;5.53;;
6388;SDS011;3227;42.654;23.360;2023-04-05T11:47:07;6.97;;;5.00;;
6388;SDS011;3227;42.654;23.360;2023-04-05T11:49:34;8.80;;;5.13;;
6388;SDS011;3227;42.654;23.360;2023-04-05T11:52:10;8.97;;;5.90;;
6388;SDS011;3227;42.654;23.360;2023-04-05T11:54:38;8.17;;;5.50;;
6388;SDS011;3227;42.654;23.360;2023-04-05T11:57:11;9.73;;;5.27;;
6388;SDS011;3227;42.654;23.360;2023-04-05T11:59:39;8.23;;;5.53;;
6388;SDS011;3227;42.654;23.360;2023-04-05T12:02:06;10.13;;;5.63;;
6388;SDS011;3227;42.654;23.360;2023-04-05T12:04:33;35.75;;;6.95;;
6388;SDS011;3227;42.654;23.360;2023-04-05T12:07:14;8.10;;;5.43;;
6388;SDS011;3227;42.654;23.360;2023-04-05T12:12:33;8.77;;;6.03;;
6388;SDS011;3227;42.654;23.360;2023-04-05T12:15:05;7.70;;;5.63;;
6388;SDS011;3227;42.654;23.360;2023-04-05T12:17:41;8.07;;;5.73;;
6388;SDS011;3227;42.654;23.360;2023-04-05T12:20:12;8.00;;;5.33;;
6388;SDS011;3227;42.654;23.360;2023-04-05T12:22:42;8.93;;;5.40;;
6388;SDS011;3227;42.654;23.360;2023-04-05T12:25:12;8.27;;;5.50;;
6388;SDS011;3227;42.654;23.360;2023-04-05T12:27:39;8.35;;;5.65;;
6388;SDS011;3227;42.654;23.360;2023-04-05T12:30:11;7.97;;;5.63;;
6388;SDS011;3227;42.654;23.360;2023-04-05T12:32:40;7.73;;;5.80;;
6388;SDS011;3227;42.654;23.360;2023-04-05T12:35:11;11.17;;;5.53;;
6388;SDS011;3227;42.654;23.360;2023-04-05T12:37:39;8.93;;;6.00;;
6388;SDS011;3227;42.654;23.360;2023-04-05T12:40:08;8.77;;;5.67;;
6388;SDS011;3227;42.654;23.360;2023-04-05T12:42:36;7.80;;;5.30;;
6388;SDS011;3227;42.654;23.360;2023-04-05T12:45:04;9.17;;;6.10;;
6388;SDS011;3227;42.654;23.360;2023-04-05T12:47:50;8.83;;;5.97;;
6388;SDS011;3227;42.654;23.360;2023-04-05T12:50:18;9.37;;;6.40;;
6388;SDS011;3227;42.654;23.360;2023-04-05T12:52:55;11.43;;;6.17;;
6388;SDS011;3227;42.654;23.360;2023-04-05T12:55:37;9.30;;;6.43;;
6388;SDS011;3227;42.654;23.360;2023-04-05T12:58:09;9.67;;;6.37;;
6388;SDS011;3227;42.654;23.360;2023-04-05T13:00:37;12.63;;;6.67;;
6388;SDS011;3227;42.654;23.360;2023-04-05T13:03:04;10.00;;;6.10;;
6388;SDS011;3227;42.654;23.360;2023-04-05T13:05:31;12.83;;;7.30;;
6388;SDS011;3227;42.654;23.360;2023-04-05T13:07:57;13.40;;;6.83;;
6388;SDS011;3227;42.654;23.360;2023-04-05T13:10:24;9.23;;;5.93;;
6388;SDS011;3227;42.654;23.360;2023-04-05T13:12:53;12.40;;;6.63;;
6388;SDS011;3227;42.654;23.360;2023-04-05T13:15:19;8.80;;;6.30;;
6388;SDS011;3227;42.654;23.360;2023-04-05T13:17:46;11.17;;;6.13;;
6388;SDS011;3227;42.654;23.360;2023-04-05T13:20:16;12.67;;;6.80;;
6388;SDS011;3227;42.654;23.360;2023-04-05T13:22:43;11.10;;;6.30;;
6388;SDS011;3227;42.654;23.360;2023-04-05T13:25:10;8.93;;;6.07;;
6388;SDS011;3227;42.654;23.360;2023-04-05T13:27:37;8.63;;;5.87;;
6388;SDS011;3227;42.654;23.360;2023-04-05T13:30:06;11.33;;;5.73;;
6388;SDS011;3227;42.654;23.360;2023-04-05T13:32:33;12.13;;;6.30;;
6388;SDS011;3227;42.654;23.360;2023-04-05T13:35:00;11.10;;;6.73;;
6388;SDS011;3227;42.654;23.360;2023-04-05T13:37:27;9.77;;;6.17;;
6388;SDS011;3227;42.654;23.360;2023-04-05T13:39:54;9.80;;;6.40;;
6388;SDS011;3227;42.654;23.360;2023-04-05T13:42:21;8.97;;;6.40;;
6388;SDS011;3227;42.654;23.360;2023-04-05T13:44:48;8.40;;;5.90;;
6388;SDS011;3227;42.654;23.360;2023-04-05T13:47:16;7.97;;;5.80;;
6388;SDS011;3227;42.654;23.360;2023-04-05T13:49:44;12.33;;;6.20;;
6388;SDS011;3227;42.654;23.360;2023-04-05T13:52:11;9.23;;;6.53;;
6388;SDS011;3227;42.654;23.360;2023-04-05T13:54:38;9.23;;;6.60;;
6388;SDS011;3227;42.654;23.360;2023-04-05T13:57:04;8.53;;;6.30;;
6388;SDS011;3227;42.654;23.360;2023-04-05T13:59:32;8.97;;;6.60;;
6388;SDS011;3227;42.654;23.360;2023-04-05T14:01:59;9.47;;;6.47;;
6388;SDS011;3227;42.654;23.360;2023-04-05T14:04:27;11.37;;;6.70;;
6388;SDS011;3227;42.654;23.360;2023-04-05T14:06:55;9.90;;;6.70;;
6388;SDS011;3227;42.654;23.360;2023-04-05T14:09:21;10.53;;;7.13;;
6388;SDS011;3227;42.654;23.360;2023-04-05T14:11:48;12.53;;;7.20;;
6388;SDS011;3227;42.654;23.360;2023-04-05T14:14:15;11.95;;;7.68;;
6388;SDS011;3227;42.654;23.360;2023-04-05T14:16:42;13.45;;;7.80;;
6388;SDS011;3227;42.654;23.360;2023-04-05T14:19:09;10.07;;;7.03;;
6388;SDS011;3227;42.654;23.360;2023-04-05T14:21:37;10.03;;;6.70;;
6388;SDS011;3227;42.654;23.360;2023-04-05T14:24:05;10.73;;;7.47;;
6388;SDS011;3227;42.654;23.360;2023-04-05T14:26:32;12.40;;;7.70;;
6388;SDS011;3227;42.654;23.360;2023-04-05T14:28:59;10.70;;;7.57;;
6388;SDS011;3227;42.654;23.360;2023-04-05T14:31:26;11.37;;;7.33;;
6388;SDS011;3227;42.654;23.360;2023-04-05T14:33:53;13.93;;;7.43;;
6388;SDS011;3227;42.654;23.360;2023-04-05T14:36:20;13.45;;;7.30;;
6388;SDS011;3227;42.654;23.360;2023-04-05T14:38:48;10.17;;;7.53;;
6388;SDS011;3227;42.654;23.360;2023-04-05T14:41:15;14.45;;;7.22;;
6388;SDS011;3227;42.654;23.360;2023-04-05T14:43:43;11.43;;;7.90;;
6388;SDS011;3227;42.654;23.360;2023-04-05T14:46:10;11.37;;;7.80;;
6388;SDS011;3227;42.654;23.360;2023-04-05T14:48:37;12.07;;;7.80;;
6388;SDS011;3227;42.654;23.360;2023-04-05T14:51:04;14.80;;;7.70;;
6388;SDS011;3227;42.654;23.360;2023-04-05T14:53:31;12.00;;;7.77;;
6388;SDS011;3227;42.654;23.360;2023-04-05T14:55:59;11.55;;;8.60;;
6388;SDS011;3227;42.654;23.360;2023-04-05T14:58:26;10.43;;;7.37;;
6388;SDS011;3227;42.654;23.360;2023-04-05T15:00:53;13.73;;;8.50;;
6388;SDS011;3227;42.654;23.360;2023-04-05T15:03:21;12.70;;;8.50;;
6388;SDS011;3227;42.654;23.360;2023-04-05T15:05:48;12.47;;;8.80;;
6388;SDS011;3227;42.654;23.360;2023-04-05T15:08:15;12.48;;;8.50;;
6388;SDS011;3227;42.654;23.360;2023-04-05T15:10:42;12.53;;;8.70;;
6388;SDS011;3227;42.654;23.360;2023-04-05T15:13:10;12.57;;;9.27;;